sensor_id;sensor_type;location;lat;lon;timestamp;P1;durP1;ratioP1;P2;durP2;ratioP2
60612;SDS011;46443;59.792;17.626;2023-12-20T00:01:01;1.92;;;0.98;;
60612;SDS011;46443;59.792;17.626;2023-12-20T00:03:27;2.60;;;1.35;;
60612;SDS011;46443;59.792;17.626;2023-12-20T00:05:53;3.50;;;1.25;;
60612;SDS011;46443;59.792;17.626;2023-12-20T00:08:19;2.20;;;1.40;;
60612;SDS011;46443;59.792;17.626;2023-12-20T00:10:45;5.45;;;1.70;;
60612;SDS011;46443;59.792;17.626;2023-12-20T00:13:11;6.88;;;1.67;;
60612;SDS011;46443;59.792;17.626;2023-12-20T00:15:37;3.67;;;1.50;;
60612;SDS011;46443;59.792;17.626;2023-12-20T00:18:03;3.53;;;1.00;;
60612;SDS011;46443;59.792;17.626;2023-12-20T00:20:30;5.63;;;2.03;;
60612;SDS011;46443;59.792;17.626;2023-12-20T00:22:56;3.97;;;1.30;;
60612;SDS011;46443;59.792;17.626;2023-12-20T00:25:23;6.03;;;1.27;;
60612;SDS011;46443;59.792;17.626;2023-12-20T00:27:49;5.30;;;1.50;;
60612;SDS011;46443;59.792;17.626;2023-12-20T00:30:15;2.55;;;1.30;;
60612;SDS011;46443;59.792;17.626;2023-12-20T00:32:41;2.75;;;1.27;;
60612;SDS011;46443;59.792;17.626;2023-12-20T00:35:15;5.93;;;1.70;;
60612;SDS011;46443;59.792;17.626;2023-12-20T00:37:42;2.72;;;1.52;;
60612;SDS011;46443;59.792;17.626;2023-12-20T00:40:08;5.85;;;1.85;;
60612;SDS011;46443;59.792;17.626;2023-12-20T00:42:35;4.80;;;1.30;;
60612;SDS011;46443;59.792;17.626;2023-12-20T00:45:01;3.90;;;1.55;;
60612;SDS011;46443;59.792;17.626;2023-12-20T00:47:27;4.63;;;1.33;;
60612;SDS011;46443;59.792;17.626;2023-12-20T00:49:54;5.95;;;1.45;;
60612;SDS011;46443;59.792;17.626;2023-12-20T00:52:20;2.55;;;1.48;;
60612;SDS011;46443;59.792;17.626;2023-12-20T00:54:47;8.93;;;1.70;;
60612;SDS011;46443;59.792;17.626;2023-12-20T00:57:13;3.40;;;1.27;;
60612;SDS011;46443;59.792;17.626;2023-12-20T00:59:40;2.95;;;1.60;;
60612;SDS011;46443;59.792;17.626;2023-12-20T01:02:06;4.00;;;1.30;;
60612;SDS011;46443;59.792;17.626;2023-12-20T01:04:32;1.35;;;1.17;;
60612;SDS011;46443;59.792;17.626;2023-12-20T01:06:58;6.18;;;1.92;;
60612;SDS011;46443;59.792;17.626;2023-12-20T01:09:24;1.25;;;1.00;;
60612;SDS011;46443;59.792;17.626;2023-12-20T01:11:51;4.10;;;1.45;;
60612;SDS011;46443;59.792;17.626;2023-12-20T01:14:18;3.53;;;1.52;;
60612;SDS011;46443;59.792;17.626;2023-12-20T01:16:44;3.38;;;1.20;;
60612;SDS011;46443;59.792;17.626;2023-12-20T01:19:10;4.13;;;1.33;;
60612;SDS011;46443;59.792;17.626;2023-12-20T01:21:36;3.25;;;1.60;;
60612;SDS011;46443;59.792;17.626;2023-12-20T01:24:04;3.90;;;1.17;;
60612;SDS011;46443;59.792;17.626;2023-12-20T01:26:30;3.28;;;1.20;;
60612;SDS011;46443;59.792;17.626;2023-12-20T01:28:56;7.43;;;1.60;;
60612;SDS011;46443;59.792;17.626;2023-12-20T01:31:22;2.67;;;1.35;;
60612;SDS011;46443;59.792;17.626;2023-12-20T01:33:48;4.68;;;1.35;;
60612;SDS011;46443;59.792;17.626;2023-12-20T01:36:14;4.20;;;1.30;;
60612;SDS011;46443;59.792;17.626;2023-12-20T01:38:41;4.40;;;1.30;;
60612;SDS011;46443;59.792;17.626;2023-12-20T01:41:07;4.88;;;1.33;;
60612;SDS011;46443;59.792;17.626;2023-12-20T01:43:33;4.90;;;1.73;;
60612;SDS011;46443;59.792;17.626;2023-12-20T01:45:59;5.93;;;1.65;;
60612;SDS011;46443;59.792;17.626;2023-12-20T01:48:25;6.40;;;1.52;;
60612;SDS011;46443;59.792;17.626;2023-12-20T01:50:53;3.78;;;1.63;;
60612;SDS011;46443;59.792;17.626;2023-12-20T01:53:20;4.90;;;1.42;;
60612;SDS011;46443;59.792;17.626;2023-12-20T01:55:47;7.18;;;1.70;;
60612;SDS011;46443;59.792;17.626;2023-12-20T01:58:14;6.35;;;1.73;;
60612;SDS011;46443;59.792;17.626;2023-12-20T02:00:40;2.28;;;1.50;;
60612;SDS011;46443;59.792;17.626;2023-12-20T02:03:07;4.07;;;1.63;;
60612;SDS011;46443;59.792;17.626;2023-12-20T02:05:34;2.60;;;1.30;;
60612;SDS011;46443;59.792;17.626;2023-12-20T02:08:00;2.75;;;1.63;;
60612;SDS011;46443;59.792;17.626;2023-12-20T02:10:27;1.83;;;1.35;;
60612;SDS011;46443;59.792;17.626;2023-12-20T02:12:54;3.85;;;1.40;;
60612;SDS011;46443;59.792;17.626;2023-12-20T02:15:20;6.55;;;1.90;;
60612;SDS011;46443;59.792;17.626;2023-12-20T02:17:47;6.93;;;1.83;;
60612;SDS011;46443;59.792;17.626;2023-12-20T02:20:13;3.55;;;1.70;;
60612;SDS011;46443;59.792;17.626;2023-12-20T02:22:39;8.35;;;2.00;;
60612;SDS011;46443;59.792;17.626;2023-12-20T02:25:05;5.20;;;1.40;;
60612;SDS011;46443;59.792;17.626;2023-12-20T02:27:32;6.47;;;1.58;;
60612;SDS011;46443;59.792;17.626;2023-12-20T02:29:58;6.88;;;1.67;;
60612;SDS011;46443;59.792;17.626;2023-12-20T02:32:24;7.07;;;1.73;;
60612;SDS011;46443;59.792;17.626;2023-12-20T02:34:51;3.75;;;1.60;;
60612;SDS011;46443;59.792;17.626;2023-12-20T02:37:17;4.57;;;1.77;;
60612;SDS011;46443;59.792;17.626;2023-12-20T02:39:43;5.88;;;2.05;;
60612;SDS011;46443;59.792;17.626;2023-12-20T02:42:09;3.85;;;1.50;;
60612;SDS011;46443;59.792;17.626;2023-12-20T02:44:35;3.45;;;1.60;;
60612;SDS011;46443;59.792;17.626;2023-12-20T02:47:01;3.72;;;1.27;;
60612;SDS011;46443;59.792;17.626;2023-12-20T02:49:27;4.82;;;1.73;;
60612;SDS011;46443;59.792;17.626;2023-12-20T02:51:53;5.63;;;1.70;;
60612;SDS011;46443;59.792;17.626;2023-12-20T02:54:20;2.15;;;1.50;;
60612;SDS011;46443;59.792;17.626;2023-12-20T02:56:46;6.50;;;1.70;;
60612;SDS011;46443;59.792;17.626;2023-12-20T02:59:12;6.63;;;2.05;;
60612;SDS011;46443;59.792;17.626;2023-12-20T03:01:41;2.70;;;1.75;;
60612;SDS011;46443;59.792;17.626;2023-12-20T03:04:08;3.75;;;1.92;;
60612;SDS011;46443;59.792;17.626;2023-12-20T03:06:34;3.78;;;1.65;;
60612;SDS011;46443;59.792;17.626;2023-12-20T03:09:00;4.18;;;1.60;;
60612;SDS011;46443;59.792;17.626;2023-12-20T03:11:26;6.03;;;1.80;;
60612;SDS011;46443;59.792;17.626;2023-12-20T03:13:53;5.20;;;1.48;;
60612;SDS011;46443;59.792;17.626;2023-12-20T03:16:19;9.30;;;1.67;;
60612;SDS011;46443;59.792;17.626;2023-12-20T03:18:45;7.57;;;1.55;;
60612;SDS011;46443;59.792;17.626;2023-12-20T03:21:11;8.93;;;1.80;;
60612;SDS011;46443;59.792;17.626;2023-12-20T03:23:38;6.13;;;1.88;;
60612;SDS011;46443;59.792;17.626;2023-12-20T03:26:06;8.27;;;2.08;;
60612;SDS011;46443;59.792;17.626;2023-12-20T03:28:33;5.85;;;2.00;;
60612;SDS011;46443;59.792;17.626;2023-12-20T03:30:59;2.58;;;1.35;;
60612;SDS011;46443;59.792;17.626;2023-12-20T03:33:25;4.10;;;1.60;;
60612;SDS011;46443;59.792;17.626;2023-12-20T03:35:51;6.13;;;2.33;;
60612;SDS011;46443;59.792;17.626;2023-12-20T03:38:17;7.95;;;2.08;;
60612;SDS011;46443;59.792;17.626;2023-12-20T03:40:43;4.22;;;1.75;;
60612;SDS011;46443;59.792;17.626;2023-12-20T03:43:09;3.25;;;1.27;;
60612;SDS011;46443;59.792;17.626;2023-12-20T03:45:35;7.47;;;1.50;;
60612;SDS011;46443;59.792;17.626;2023-12-20T03:48:01;7.93;;;1.90;;
60612;SDS011;46443;59.792;17.626;2023-12-20T03:50:28;6.55;;;1.88;;
60612;SDS011;46443;59.792;17.626;2023-12-20T03:52:54;4.32;;;1.73;;
60612;SDS011;46443;59.792;17.626;2023-12-20T03:55:20;5.93;;;1.65;;
60612;SDS011;46443;59.792;17.626;2023-12-20T03:57:47;5.68;;;1.83;;
60612;SDS011;46443;59.792;17.626;2023-12-20T04:00:13;6.65;;;1.85;;
60612;SDS011;46443;59.792;17.626;2023-12-20T04:02:40;5.50;;;1.40;;
60612;SDS011;46443;59.792;17.626;2023-12-20T04:05:06;5.90;;;1.83;;
60612;SDS011;46443;59.792;17.626;2023-12-20T04:07:33;7.15;;;1.83;;
60612;SDS011;46443;59.792;17.626;2023-12-20T04:09:59;6.63;;;1.73;;
60612;SDS011;46443;59.792;17.626;2023-12-20T04:12:26;3.38;;;1.38;;
60612;SDS011;46443;59.792;17.626;2023-12-20T04:14:52;5.03;;;1.30;;
60612;SDS011;46443;59.792;17.626;2023-12-20T04:17:18;3.28;;;1.67;;
60612;SDS011;46443;59.792;17.626;2023-12-20T04:19:44;8.73;;;1.85;;
60612;SDS011;46443;59.792;17.626;2023-12-20T04:22:10;8.93;;;2.00;;
60612;SDS011;46443;59.792;17.626;2023-12-20T04:24:36;10.88;;;1.90;;
60612;SDS011;46443;59.792;17.626;2023-12-20T04:27:02;4.82;;;1.60;;
60612;SDS011;46443;59.792;17.626;2023-12-20T04:29:28;7.72;;;2.00;;
60612;SDS011;46443;59.792;17.626;2023-12-20T04:31:54;11.00;;;2.65;;
60612;SDS011;46443;59.792;17.626;2023-12-20T04:34:21;7.45;;;2.78;;
60612;SDS011;46443;59.792;17.626;2023-12-20T04:36:48;16.52;;;2.90;;
60612;SDS011;46443;59.792;17.626;2023-12-20T04:39:14;11.32;;;3.05;;
60612;SDS011;46443;59.792;17.626;2023-12-20T04:41:40;14.20;;;3.10;;
60612;SDS011;46443;59.792;17.626;2023-12-20T04:44:06;10.40;;;2.78;;
60612;SDS011;46443;59.792;17.626;2023-12-20T04:46:32;17.35;;;3.03;;
60612;SDS011;46443;59.792;17.626;2023-12-20T04:48:58;8.32;;;2.50;;
60612;SDS011;46443;59.792;17.626;2023-12-20T04:51:24;21.65;;;3.30;;
60612;SDS011;46443;59.792;17.626;2023-12-20T04:53:50;11.27;;;2.60;;
60612;SDS011;46443;59.792;17.626;2023-12-20T04:56:17;9.02;;;3.30;;
60612;SDS011;46443;59.792;17.626;2023-12-20T04:58:43;17.55;;;4.22;;
60612;SDS011;46443;59.792;17.626;2023-12-20T05:01:09;16.95;;;4.10;;
60612;SDS011;46443;59.792;17.626;2023-12-20T05:03:35;15.20;;;4.00;;
60612;SDS011;46443;59.792;17.626;2023-12-20T05:06:01;15.77;;;4.03;;
60612;SDS011;46443;59.792;17.626;2023-12-20T05:08:27;11.35;;;3.30;;
60612;SDS011;46443;59.792;17.626;2023-12-20T05:10:54;18.40;;;4.35;;
60612;SDS011;46443;59.792;17.626;2023-12-20T05:13:20;17.80;;;4.50;;
60612;SDS011;46443;59.792;17.626;2023-12-20T05:15:46;21.65;;;4.82;;
60612;SDS011;46443;59.792;17.626;2023-12-20T05:18:13;16.42;;;4.32;;
60612;SDS011;46443;59.792;17.626;2023-12-20T05:20:39;20.10;;;4.43;;
60612;SDS011;46443;59.792;17.626;2023-12-20T05:23:05;22.13;;;5.47;;
60612;SDS011;46443;59.792;17.626;2023-12-20T05:25:32;24.05;;;5.45;;
60612;SDS011;46443;59.792;17.626;2023-12-20T05:27:58;16.38;;;4.85;;
60612;SDS011;46443;59.792;17.626;2023-12-20T05:30:24;16.90;;;4.57;;
60612;SDS011;46443;59.792;17.626;2023-12-20T05:32:50;16.50;;;4.55;;
60612;SDS011;46443;59.792;17.626;2023-12-20T05:35:16;11.30;;;3.83;;
60612;SDS011;46443;59.792;17.626;2023-12-20T05:37:42;18.27;;;3.97;;
60612;SDS011;46443;59.792;17.626;2023-12-20T05:40:08;16.48;;;4.53;;
60612;SDS011;46443;59.792;17.626;2023-12-20T05:42:35;16.25;;;4.57;;
60612;SDS011;46443;59.792;17.626;2023-12-20T05:45:02;14.82;;;3.65;;
60612;SDS011;46443;59.792;17.626;2023-12-20T05:47:28;13.25;;;4.95;;
60612;SDS011;46443;59.792;17.626;2023-12-20T05:49:54;16.98;;;4.00;;
60612;SDS011;46443;59.792;17.626;2023-12-20T05:52:21;20.40;;;4.30;;
60612;SDS011;46443;59.792;17.626;2023-12-20T05:54:47;12.20;;;4.13;;
60612;SDS011;46443;59.792;17.626;2023-12-20T05:57:13;14.50;;;4.38;;
60612;SDS011;46443;59.792;17.626;2023-12-20T05:59:39;8.77;;;3.28;;
60612;SDS011;46443;59.792;17.626;2023-12-20T06:02:05;13.27;;;4.18;;
60612;SDS011;46443;59.792;17.626;2023-12-20T06:04:32;10.13;;;3.55;;
60612;SDS011;46443;59.792;17.626;2023-12-20T06:06:58;13.70;;;3.97;;
60612;SDS011;46443;59.792;17.626;2023-12-20T06:09:24;27.00;;;4.82;;
60612;SDS011;46443;59.792;17.626;2023-12-20T06:11:51;18.50;;;4.35;;
60612;SDS011;46443;59.792;17.626;2023-12-20T06:14:17;19.35;;;4.47;;
60612;SDS011;46443;59.792;17.626;2023-12-20T06:16:43;15.00;;;4.25;;
60612;SDS011;46443;59.792;17.626;2023-12-20T06:19:10;18.08;;;3.58;;
60612;SDS011;46443;59.792;17.626;2023-12-20T06:21:36;8.57;;;3.00;;
60612;SDS011;46443;59.792;17.626;2023-12-20T06:24:02;12.73;;;3.05;;
60612;SDS011;46443;59.792;17.626;2023-12-20T06:26:28;10.38;;;2.95;;
60612;SDS011;46443;59.792;17.626;2023-12-20T06:28:54;10.27;;;2.55;;
60612;SDS011;46443;59.792;17.626;2023-12-20T06:31:20;10.88;;;3.03;;
60612;SDS011;46443;59.792;17.626;2023-12-20T06:33:46;10.93;;;3.05;;
60612;SDS011;46443;59.792;17.626;2023-12-20T06:36:14;11.40;;;2.78;;
60612;SDS011;46443;59.792;17.626;2023-12-20T06:38:40;12.23;;;2.92;;
60612;SDS011;46443;59.792;17.626;2023-12-20T06:41:12;11.40;;;2.92;;
60612;SDS011;46443;59.792;17.626;2023-12-20T06:43:39;12.55;;;3.13;;
60612;SDS011;46443;59.792;17.626;2023-12-20T06:46:06;17.35;;;2.78;;
60612;SDS011;46443;59.792;17.626;2023-12-20T06:48:32;16.83;;;3.15;;
60612;SDS011;46443;59.792;17.626;2023-12-20T06:50:59;43.38;;;5.18;;
60612;SDS011;46443;59.792;17.626;2023-12-20T06:53:27;16.95;;;3.33;;
60612;SDS011;46443;59.792;17.626;2023-12-20T06:55:53;37.90;;;4.72;;
60612;SDS011;46443;59.792;17.626;2023-12-20T06:58:21;65.13;;;6.20;;
60612;SDS011;46443;59.792;17.626;2023-12-20T07:00:47;18.40;;;2.88;;
60612;SDS011;46443;59.792;17.626;2023-12-20T07:03:13;35.13;;;4.10;;
60612;SDS011;46443;59.792;17.626;2023-12-20T07:05:39;45.17;;;4.97;;
60612;SDS011;46443;59.792;17.626;2023-12-20T07:08:06;33.55;;;4.18;;
60612;SDS011;46443;59.792;17.626;2023-12-20T07:10:32;53.63;;;6.15;;
60612;SDS011;46443;59.792;17.626;2023-12-20T07:12:58;29.83;;;4.93;;
60612;SDS011;46443;59.792;17.626;2023-12-20T07:15:24;32.28;;;4.35;;
60612;SDS011;46443;59.792;17.626;2023-12-20T07:17:51;25.02;;;3.22;;
60612;SDS011;46443;59.792;17.626;2023-12-20T07:20:18;46.83;;;4.93;;
60612;SDS011;46443;59.792;17.626;2023-12-20T07:22:44;41.95;;;4.43;;
60612;SDS011;46443;59.792;17.626;2023-12-20T07:25:10;77.30;;;6.35;;
60612;SDS011;46443;59.792;17.626;2023-12-20T07:27:36;31.48;;;4.40;;
60612;SDS011;46443;59.792;17.626;2023-12-20T07:30:02;53.08;;;6.38;;
60612;SDS011;46443;59.792;17.626;2023-12-20T07:32:28;47.28;;;5.45;;
60612;SDS011;46443;59.792;17.626;2023-12-20T07:34:54;28.88;;;4.68;;
60612;SDS011;46443;59.792;17.626;2023-12-20T07:37:20;43.42;;;5.13;;
60612;SDS011;46443;59.792;17.626;2023-12-20T07:39:46;37.88;;;5.30;;
60612;SDS011;46443;59.792;17.626;2023-12-20T07:42:13;32.83;;;4.45;;
60612;SDS011;46443;59.792;17.626;2023-12-20T07:44:39;41.80;;;5.10;;
60612;SDS011;46443;59.792;17.626;2023-12-20T07:47:05;59.70;;;6.40;;
60612;SDS011;46443;59.792;17.626;2023-12-20T07:49:31;28.92;;;4.10;;
60612;SDS011;46443;59.792;17.626;2023-12-20T07:51:57;28.92;;;4.75;;
60612;SDS011;46443;59.792;17.626;2023-12-20T07:54:23;16.30;;;3.63;;
60612;SDS011;46443;59.792;17.626;2023-12-20T07:56:49;17.83;;;3.30;;
60612;SDS011;46443;59.792;17.626;2023-12-20T07:59:15;41.92;;;5.63;;
60612;SDS011;46443;59.792;17.626;2023-12-20T08:01:41;17.45;;;4.15;;
60612;SDS011;46443;59.792;17.626;2023-12-20T08:04:08;63.13;;;7.43;;
60612;SDS011;46443;59.792;17.626;2023-12-20T08:06:34;43.25;;;6.05;;
60612;SDS011;46443;59.792;17.626;2023-12-20T08:09:00;19.55;;;4.25;;
60612;SDS011;46443;59.792;17.626;2023-12-20T08:11:26;31.63;;;4.53;;
60612;SDS011;46443;59.792;17.626;2023-12-20T08:13:52;27.55;;;4.43;;
60612;SDS011;46443;59.792;17.626;2023-12-20T08:16:18;29.80;;;4.78;;
60612;SDS011;46443;59.792;17.626;2023-12-20T08:18:45;20.73;;;4.00;;
60612;SDS011;46443;59.792;17.626;2023-12-20T08:21:11;14.05;;;4.38;;
60612;SDS011;46443;59.792;17.626;2023-12-20T08:23:37;9.55;;;3.58;;
60612;SDS011;46443;59.792;17.626;2023-12-20T08:26:06;12.00;;;3.30;;
60612;SDS011;46443;59.792;17.626;2023-12-20T08:28:32;16.70;;;4.18;;
60612;SDS011;46443;59.792;17.626;2023-12-20T08:30:58;16.75;;;3.80;;
60612;SDS011;46443;59.792;17.626;2023-12-20T08:33:25;11.25;;;3.45;;
60612;SDS011;46443;59.792;17.626;2023-12-20T08:35:51;9.75;;;3.22;;
60612;SDS011;46443;59.792;17.626;2023-12-20T08:38:17;14.90;;;3.50;;
60612;SDS011;46443;59.792;17.626;2023-12-20T08:40:43;12.60;;;3.60;;
60612;SDS011;46443;59.792;17.626;2023-12-20T08:43:09;8.47;;;2.80;;
60612;SDS011;46443;59.792;17.626;2023-12-20T08:45:36;10.53;;;3.70;;
60612;SDS011;46443;59.792;17.626;2023-12-20T08:48:02;9.77;;;3.80;;
60612;SDS011;46443;59.792;17.626;2023-12-20T08:50:28;11.93;;;3.50;;
60612;SDS011;46443;59.792;17.626;2023-12-20T08:52:54;19.27;;;4.00;;
60612;SDS011;46443;59.792;17.626;2023-12-20T08:55:20;9.83;;;3.30;;
60612;SDS011;46443;59.792;17.626;2023-12-20T08:57:47;13.53;;;3.43;;
60612;SDS011;46443;59.792;17.626;2023-12-20T09:00:14;9.13;;;3.37;;
60612;SDS011;46443;59.792;17.626;2023-12-20T09:02:41;8.87;;;2.87;;
60612;SDS011;46443;59.792;17.626;2023-12-20T09:05:07;9.60;;;3.27;;
60612;SDS011;46443;59.792;17.626;2023-12-20T09:07:33;10.20;;;3.05;;
60612;SDS011;46443;59.792;17.626;2023-12-20T09:09:59;10.40;;;3.07;;
60612;SDS011;46443;59.792;17.626;2023-12-20T09:12:25;7.67;;;2.87;;
60612;SDS011;46443;59.792;17.626;2023-12-20T09:14:52;9.00;;;3.37;;
60612;SDS011;46443;59.792;17.626;2023-12-20T09:17:19;8.80;;;3.20;;
60612;SDS011;46443;59.792;17.626;2023-12-20T09:19:47;9.90;;;3.10;;
60612;SDS011;46443;59.792;17.626;2023-12-20T09:22:14;7.63;;;2.53;;
60612;SDS011;46443;59.792;17.626;2023-12-20T09:24:40;10.43;;;3.70;;
60612;SDS011;46443;59.792;17.626;2023-12-20T09:27:06;7.37;;;2.83;;
60612;SDS011;46443;59.792;17.626;2023-12-20T09:29:32;8.90;;;2.77;;
60612;SDS011;46443;59.792;17.626;2023-12-20T09:31:58;8.60;;;2.97;;
60612;SDS011;46443;59.792;17.626;2023-12-20T09:34:26;8.77;;;2.63;;
60612;SDS011;46443;59.792;17.626;2023-12-20T09:36:52;8.50;;;3.37;;
60612;SDS011;46443;59.792;17.626;2023-12-20T09:39:18;7.80;;;2.70;;
60612;SDS011;46443;59.792;17.626;2023-12-20T09:44:21;8.67;;;3.20;;
60612;SDS011;46443;59.792;17.626;2023-12-20T09:46:49;9.03;;;2.60;;
60612;SDS011;46443;59.792;17.626;2023-12-20T09:49:18;6.25;;;2.58;;
60612;SDS011;46443;59.792;17.626;2023-12-20T09:51:49;7.23;;;2.63;;
60612;SDS011;46443;59.792;17.626;2023-12-20T09:54:17;7.23;;;2.90;;
60612;SDS011;46443;59.792;17.626;2023-12-20T09:56:44;7.13;;;2.40;;
60612;SDS011;46443;59.792;17.626;2023-12-20T09:59:10;6.03;;;2.63;;
60612;SDS011;46443;59.792;17.626;2023-12-20T10:01:36;9.60;;;2.50;;
60612;SDS011;46443;59.792;17.626;2023-12-20T10:04:05;8.53;;;3.07;;
60612;SDS011;46443;59.792;17.626;2023-12-20T10:08:59;6.20;;;2.57;;
60612;SDS011;46443;59.792;17.626;2023-12-20T10:11:25;8.57;;;3.17;;
60612;SDS011;46443;59.792;17.626;2023-12-20T10:13:58;6.33;;;2.63;;
60612;SDS011;46443;59.792;17.626;2023-12-20T10:16:27;8.43;;;2.83;;
60612;SDS011;46443;59.792;17.626;2023-12-20T10:18:54;9.63;;;3.30;;
60612;SDS011;46443;59.792;17.626;2023-12-20T10:21:20;12.60;;;3.47;;
60612;SDS011;46443;59.792;17.626;2023-12-20T10:23:50;10.80;;;3.30;;
60612;SDS011;46443;59.792;17.626;2023-12-20T10:26:35;16.40;;;3.63;;
60612;SDS011;46443;59.792;17.626;2023-12-20T10:29:01;9.90;;;3.60;;
60612;SDS011;46443;59.792;17.626;2023-12-20T10:31:33;14.20;;;3.77;;
60612;SDS011;46443;59.792;17.626;2023-12-20T10:34:00;11.00;;;3.10;;
60612;SDS011;46443;59.792;17.626;2023-12-20T10:36:27;11.20;;;3.43;;
60612;SDS011;46443;59.792;17.626;2023-12-20T10:38:54;7.87;;;2.83;;
60612;SDS011;46443;59.792;17.626;2023-12-20T10:41:24;9.63;;;2.93;;
60612;SDS011;46443;59.792;17.626;2023-12-20T10:43:51;10.18;;;3.35;;
60612;SDS011;46443;59.792;17.626;2023-12-20T10:46:19;11.77;;;3.50;;
60612;SDS011;46443;59.792;17.626;2023-12-20T10:48:45;10.20;;;3.50;;
60612;SDS011;46443;59.792;17.626;2023-12-20T10:51:13;10.80;;;3.77;;
60612;SDS011;46443;59.792;17.626;2023-12-20T10:53:39;9.40;;;3.20;;
60612;SDS011;46443;59.792;17.626;2023-12-20T10:56:06;13.00;;;3.60;;
60612;SDS011;46443;59.792;17.626;2023-12-20T10:58:33;9.03;;;2.83;;
60612;SDS011;46443;59.792;17.626;2023-12-20T11:01:01;13.30;;;3.33;;
60612;SDS011;46443;59.792;17.626;2023-12-20T11:03:28;10.90;;;3.40;;
60612;SDS011;46443;59.792;17.626;2023-12-20T11:05:58;7.65;;;3.38;;
60612;SDS011;46443;59.792;17.626;2023-12-20T11:08:28;14.33;;;4.57;;
60612;SDS011;46443;59.792;17.626;2023-12-20T11:11:05;12.40;;;4.57;;
60612;SDS011;46443;59.792;17.626;2023-12-20T11:13:34;13.43;;;4.70;;
60612;SDS011;46443;59.792;17.626;2023-12-20T11:16:02;11.70;;;4.40;;
60612;SDS011;46443;59.792;17.626;2023-12-20T11:18:29;17.53;;;4.40;;
60612;SDS011;46443;59.792;17.626;2023-12-20T11:21:01;18.17;;;4.40;;
60612;SDS011;46443;59.792;17.626;2023-12-20T11:23:29;18.07;;;4.70;;
60612;SDS011;46443;59.792;17.626;2023-12-20T11:25:56;10.47;;;4.00;;
60612;SDS011;46443;59.792;17.626;2023-12-20T11:28:25;16.90;;;4.43;;
60612;SDS011;46443;59.792;17.626;2023-12-20T11:33:21;16.53;;;5.40;;
60612;SDS011;46443;59.792;17.626;2023-12-20T11:38:14;8.23;;;3.17;;
60612;SDS011;46443;59.792;17.626;2023-12-20T11:40:41;9.70;;;3.63;;
60612;SDS011;46443;59.792;17.626;2023-12-20T11:43:07;12.57;;;4.70;;
60612;SDS011;46443;59.792;17.626;2023-12-20T11:45:33;12.50;;;4.57;;
60612;SDS011;46443;59.792;17.626;2023-12-20T11:48:03;18.27;;;4.83;;
60612;SDS011;46443;59.792;17.626;2023-12-20T11:50:30;26.40;;;6.65;;
60612;SDS011;46443;59.792;17.626;2023-12-20T11:52:56;14.73;;;4.63;;
60612;SDS011;46443;59.792;17.626;2023-12-20T11:55:22;10.23;;;4.50;;
60612;SDS011;46443;59.792;17.626;2023-12-20T11:57:52;14.97;;;4.77;;
60612;SDS011;46443;59.792;17.626;2023-12-20T12:00:19;12.10;;;4.80;;
60612;SDS011;46443;59.792;17.626;2023-12-20T12:02:58;16.67;;;5.27;;
60612;SDS011;46443;59.792;17.626;2023-12-20T12:05:24;17.60;;;5.50;;
60612;SDS011;46443;59.792;17.626;2023-12-20T12:07:51;18.60;;;5.57;;
60612;SDS011;46443;59.792;17.626;2023-12-20T12:10:17;14.03;;;4.87;;
60612;SDS011;46443;59.792;17.626;2023-12-20T12:12:43;15.37;;;5.27;;
60612;SDS011;46443;59.792;17.626;2023-12-20T12:15:09;14.83;;;4.80;;
60612;SDS011;46443;59.792;17.626;2023-12-20T12:17:36;13.70;;;5.27;;
60612;SDS011;46443;59.792;17.626;2023-12-20T12:20:04;16.50;;;4.93;;
60612;SDS011;46443;59.792;17.626;2023-12-20T12:22:30;15.83;;;4.90;;
60612;SDS011;46443;59.792;17.626;2023-12-20T12:24:59;16.43;;;5.43;;
60612;SDS011;46443;59.792;17.626;2023-12-20T12:27:26;19.97;;;5.40;;
60612;SDS011;46443;59.792;17.626;2023-12-20T12:30:03;15.53;;;5.07;;
60612;SDS011;46443;59.792;17.626;2023-12-20T12:32:29;13.10;;;5.13;;
60612;SDS011;46443;59.792;17.626;2023-12-20T12:34:55;14.20;;;4.93;;
60612;SDS011;46443;59.792;17.626;2023-12-20T12:37:22;17.53;;;4.93;;
60612;SDS011;46443;59.792;17.626;2023-12-20T12:39:54;17.67;;;5.93;;
60612;SDS011;46443;59.792;17.626;2023-12-20T12:42:20;18.20;;;5.38;;
60612;SDS011;46443;59.792;17.626;2023-12-20T12:44:50;15.33;;;4.40;;
60612;SDS011;46443;59.792;17.626;2023-12-20T12:47:17;15.90;;;4.60;;
60612;SDS011;46443;59.792;17.626;2023-12-20T12:49:43;13.67;;;4.53;;
60612;SDS011;46443;59.792;17.626;2023-12-20T12:52:09;10.20;;;4.10;;
60612;SDS011;46443;59.792;17.626;2023-12-20T12:54:35;13.40;;;4.83;;
60612;SDS011;46443;59.792;17.626;2023-12-20T12:57:01;12.43;;;4.00;;
60612;SDS011;46443;59.792;17.626;2023-12-20T12:59:27;9.63;;;3.77;;
60612;SDS011;46443;59.792;17.626;2023-12-20T13:01:54;9.77;;;4.00;;
60612;SDS011;46443;59.792;17.626;2023-12-20T13:04:20;8.23;;;3.53;;
60612;SDS011;46443;59.792;17.626;2023-12-20T13:06:46;9.33;;;3.90;;
60612;SDS011;46443;59.792;17.626;2023-12-20T13:09:12;7.57;;;4.13;;
60612;SDS011;46443;59.792;17.626;2023-12-20T13:11:38;10.57;;;4.20;;
60612;SDS011;46443;59.792;17.626;2023-12-20T13:14:05;9.67;;;3.80;;
60612;SDS011;46443;59.792;17.626;2023-12-20T13:16:31;9.27;;;3.83;;
60612;SDS011;46443;59.792;17.626;2023-12-20T13:18:57;9.17;;;3.83;;
60612;SDS011;46443;59.792;17.626;2023-12-20T13:21:24;9.67;;;3.77;;
60612;SDS011;46443;59.792;17.626;2023-12-20T13:23:50;9.97;;;4.23;;
60612;SDS011;46443;59.792;17.626;2023-12-20T13:26:18;11.57;;;3.83;;
60612;SDS011;46443;59.792;17.626;2023-12-20T13:28:44;7.73;;;3.63;;
60612;SDS011;46443;59.792;17.626;2023-12-20T13:31:12;9.77;;;3.93;;
60612;SDS011;46443;59.792;17.626;2023-12-20T13:33:38;8.37;;;3.80;;
60612;SDS011;46443;59.792;17.626;2023-12-20T13:36:05;6.67;;;3.63;;
60612;SDS011;46443;59.792;17.626;2023-12-20T13:38:31;7.90;;;3.33;;
60612;SDS011;46443;59.792;17.626;2023-12-20T13:40:58;9.83;;;3.80;;
60612;SDS011;46443;59.792;17.626;2023-12-20T13:43:24;8.33;;;3.47;;
60612;SDS011;46443;59.792;17.626;2023-12-20T13:45:50;6.97;;;3.33;;
60612;SDS011;46443;59.792;17.626;2023-12-20T13:48:16;9.60;;;4.03;;
60612;SDS011;46443;59.792;17.626;2023-12-20T13:50:42;6.83;;;3.20;;
60612;SDS011;46443;59.792;17.626;2023-12-20T13:53:09;7.70;;;3.10;;
60612;SDS011;46443;59.792;17.626;2023-12-20T13:55:35;9.73;;;3.87;;
60612;SDS011;46443;59.792;17.626;2023-12-20T13:58:01;10.50;;;3.63;;
60612;SDS011;46443;59.792;17.626;2023-12-20T14:00:27;6.73;;;3.20;;
60612;SDS011;46443;59.792;17.626;2023-12-20T14:02:53;7.37;;;3.00;;
60612;SDS011;46443;59.792;17.626;2023-12-20T14:05:19;6.80;;;2.97;;
60612;SDS011;46443;59.792;17.626;2023-12-20T14:07:45;6.97;;;3.03;;
60612;SDS011;46443;59.792;17.626;2023-12-20T14:10:15;7.47;;;3.40;;
60612;SDS011;46443;59.792;17.626;2023-12-20T14:12:41;5.75;;;3.10;;
60612;SDS011;46443;59.792;17.626;2023-12-20T14:15:09;7.73;;;3.60;;
60612;SDS011;46443;59.792;17.626;2023-12-20T14:17:39;8.87;;;3.10;;
60612;SDS011;46443;59.792;17.626;2023-12-20T14:20:07;7.27;;;3.43;;
60612;SDS011;46443;59.792;17.626;2023-12-20T14:22:33;6.47;;;2.83;;
60612;SDS011;46443;59.792;17.626;2023-12-20T14:25:00;6.50;;;3.37;;
60612;SDS011;46443;59.792;17.626;2023-12-20T14:27:26;6.03;;;2.90;;
60612;SDS011;46443;59.792;17.626;2023-12-20T14:29:55;7.03;;;3.80;;
60612;SDS011;46443;59.792;17.626;2023-12-20T14:32:22;7.30;;;3.50;;
60612;SDS011;46443;59.792;17.626;2023-12-20T14:34:48;6.10;;;2.67;;